Pinewood, SC (29125)

2:55 AM EST on March 01, 2015 (GMT -0500)
Garden Gate | Change Station
CLOSE
Current Station
Personal Weather Station
Location: Sumter, SC
Elevation: 200 ft
Nearby Weather Stations
Active Advisory: Freezing Rain Advisory

Elev 200 ft 33.94 °N, 80.42 °W | Updated 3 seconds ago

Rain
Rain
36.1 °F
Feels Like 36 °F
N
2.3
Wind Variable Wind from SW
Gusts 2.3 mph

Today
High -- | Low -- °F
--% Chance of Precip.
Yesterday
High -- | Low -- °F
Precip. -- in
6:50 AM 6:18 PM
Waxing Gibbous, 83% visible
Pressure 30.55 in
Visibility 10.0 miles
Clouds Overcast 1400 ft
Windchill 36 °F
Dew Point 30 °F
Humidity 80%
Rainfall 0.02 in
Snow Depth Not available.
UV 0 out of 12
Pollen 8.30 out of 12
Air Quality Not available.
Flu Activity Not available.
SPECI KSSC 010729Z AUTO 04009KT 10SM OVC014 02/M01 A3055 RMK AO2 RAE27DZB27E29 $

More Conditions Fewer Conditions

Pressure 30.55 in
Visibility 10.0 miles
Clouds Overcast 1400 ft
Windchill 36 °F
Dew Point 30 °F
Humidity 80%
Rainfall 0.02 in
Snow Depth Not available.
UV 0 out of 12
Pollen 8.30 out of 12
Air Quality Not available.
Flu Activity Not available.
SPECI KSSC 010729Z AUTO 04009KT 10SM OVC014 02/M01 A3055 RMK AO2 RAE27DZB27E29 $

More Conditions Fewer Conditions

10-Day Weather Forecast

Almanac

Astronomy

Mar. 01, 2015 Rise Set
Actual Time
Civil Twilight
Nautical Twilight
Astronomical Twilight
Moon
Length of Visible Light
Length of Day
Tomorrow will be .
, % of the Moon is Illuminated

Today's Extremes

State Highs State Lows

Community

WunderPhotos

Upload Photos

1,801,347 photos uploaded!

WunderBlogs® & News

Nearby

Air Quality

  Air Quality AQ Index Pollutant
Not available.

Snow Depth

Station Depth Elevation

Earthquake Activity

City Distance Mag. Time & Date
Minimum magnitude displayed is 2.5.

Coastal Water Temperatures

Place Temperature

Nearby Weather Stations

Freezing Rain Advisory
Statement as of 9:00 PM EST on February 28, 2015

... Freezing Rain Advisory remains in effect from midnight tonight
to 10 am EST Sunday...

* locations... north-central South Carolina.

* Hazard types... light freezing rain.

* Ice accumulations... up to one tenth of an inch.

* Timing... from midnight tonight until 10 am Sunday.

* Impacts... light accumulations of freezing rain on roadways could
cause hazardous travel conditions... especially on bridges and
overpasses.

* Winds... northeast 5 to 10 mph.

* Temperatures... in the lower 30s.

Precautionary/preparedness actions...

A Freezing Rain Advisory means that periods of freezing rain or
freezing drizzle will cause travel difficulties. Be prepared for
slippery roads. Slow down and use caution while driving.